Time;durP1;ratioP1;P1;durP2;ratioP2;P2;SDS_P1;SDS_P2;PMS_P1;PMS_P2;Temp;Humidity;BMP_temperature;BMP_pressure;BME280_temperature;BME280_humidity;BME280_pressure;Samples;Min_cycle;Max_cycle;Signal;HPM_P1;HPM_P2
2022/12/08 00:00:41;;;;;;;21.42;11.75;;;4.70;99.90;;;;;;5052118;28;20222;-49
2022/12/08 00:03:07;;;;;;;24.33;13.35;;;4.60;99.90;;;;;;5052895;28;20166;-50
2022/12/08 00:11:00;;;;;;;25.45;13.25;;;4.70;99.90;;;;;;5052460;28;20193;-46
2022/12/08 00:13:26;;;;;;;24.80;13.85;;;4.70;99.90;;;;;;5052365;28;20167;-51
2022/12/08 00:15:51;;;;;;;24.35;13.32;;;4.60;99.90;;;;;;5052361;28;20261;-50
2022/12/08 00:18:17;;;;;;;22.40;14.30;;;4.70;99.90;;;;;;5052389;28;20200;-49
2022/12/08 00:20:42;;;;;;;29.35;14.80;;;4.70;99.90;;;;;;5052201;28;20207;-45
2022/12/08 00:23:08;;;;;;;21.52;12.80;;;4.70;99.90;;;;;;5052547;28;20729;-45
2022/12/08 00:25:37;;;;;;;23.77;14.52;;;4.60;99.90;;;;;;5052146;28;20542;-47
2022/12/08 00:28:02;;;;;;;26.73;14.82;;;4.60;99.90;;;;;;5052107;28;20179;-46
2022/12/08 00:30:28;;;;;;;24.65;15.02;;;4.60;99.90;;;;;;5051561;28;20537;-45
2022/12/08 00:32:53;;;;;;;29.58;14.82;;;4.70;99.90;;;;;;5051629;28;20174;-46
2022/12/08 00:35:19;;;;;;;30.70;16.50;;;4.60;99.90;;;;;;5051997;28;20175;-45
2022/12/08 00:37:44;;;;;;;23.35;14.88;;;4.70;99.90;;;;;;5051952;28;20170;-45
2022/12/08 00:40:10;;;;;;;22.40;13.95;;;4.70;99.90;;;;;;5051815;28;20162;-45
2022/12/08 00:42:36;;;;;;;27.38;15.45;;;4.60;99.90;;;;;;5052206;28;20583;-45
2022/12/08 00:45:01;;;;;;;25.83;13.57;;;4.70;99.90;;;;;;5051870;28;20173;-48
2022/12/08 00:47:27;;;;;;;20.08;12.07;;;4.60;99.90;;;;;;5051768;28;20194;-47
2022/12/08 00:49:52;;;;;;;22.05;15.55;;;4.60;99.90;;;;;;5050498;28;20713;-48
2022/12/08 00:52:18;;;;;;;26.15;14.90;;;4.60;99.90;;;;;;5051728;28;20167;-45
2022/12/08 00:54:43;;;;;;;24.40;15.32;;;4.60;99.90;;;;;;5051756;28;20228;-49
2022/12/08 00:57:09;;;;;;;28.50;16.05;;;4.60;99.90;;;;;;5050506;28;20254;-47
2022/12/08 00:59:35;;;;;;;23.52;16.05;;;4.70;99.90;;;;;;5052263;28;20181;-49
2022/12/08 01:02:00;;;;;;;25.13;15.63;;;4.60;99.90;;;;;;5051346;28;20728;-45
2022/12/08 01:04:26;;;;;;;25.02;14.70;;;4.50;99.90;;;;;;5051354;28;20521;-46
2022/12/08 01:06:51;;;;;;;22.48;14.40;;;4.60;99.90;;;;;;5051478;28;20207;-45
2022/12/08 01:09:18;;;;;;;22.02;13.90;;;4.60;99.90;;;;;;5051603;28;20162;-45
2022/12/08 01:11:45;;;;;;;18.55;12.60;;;4.50;99.90;;;;;;5051613;28;20167;-45
2022/12/08 01:14:12;;;;;;;24.80;15.38;;;4.60;99.90;;;;;;5051559;28;20177;-46
2022/12/08 01:16:40;;;;;;;18.50;12.57;;;4.60;99.90;;;;;;5051980;28;20189;-45
2022/12/08 01:19:05;;;;;;;24.40;14.75;;;4.50;99.90;;;;;;5052078;28;20178;-45
2022/12/08 01:21:31;;;;;;;21.35;14.13;;;4.50;99.90;;;;;;5051429;28;20210;-45
2022/12/08 01:23:59;;;;;;;22.13;13.45;;;4.60;99.90;;;;;;5051679;28;20171;-45
2022/12/08 01:26:24;;;;;;;18.10;11.30;;;4.60;99.90;;;;;;5051400;28;20593;-45
2022/12/08 01:28:51;;;;;;;20.92;13.70;;;4.70;99.90;;;;;;5051385;28;20195;-45
2022/12/08 01:31:18;;;;;;;22.52;13.05;;;4.60;99.90;;;;;;5051450;28;20684;-45
2022/12/08 01:33:44;;;;;;;25.63;13.63;;;4.80;99.90;;;;;;5051345;28;20208;-46
2022/12/08 01:36:37;;;;;;;23.15;13.70;;;4.70;99.90;;;;;;5051383;28;20250;-45
2022/12/08 01:39:04;;;;;;;21.15;12.55;;;4.70;99.90;;;;;;5050118;28;20175;-45
2022/12/08 01:41:32;;;;;;;21.55;13.82;;;4.80;99.90;;;;;;5051436;28;20206;-45
2022/12/08 01:44:06;;;;;;;21.15;13.55;;;4.80;99.90;;;;;;5053691;28;20257;-47
2022/12/08 01:46:33;;;;;;;20.35;13.40;;;4.70;99.90;;;;;;5055112;28;20216;-45
2022/12/08 01:49:29;;;;;;;19.38;12.60;;;4.70;99.90;;;;;;5055120;28;20169;-45
2022/12/08 01:51:58;;;;;;;21.05;12.00;;;4.70;99.90;;;;;;5055006;28;20167;-45
2022/12/08 01:54:29;;;;;;;16.15;10.93;;;4.70;99.90;;;;;;5054988;28;20170;-45
2022/12/08 01:56:59;;;;;;;12.57;9.45;;;4.70;99.90;;;;;;5054869;28;20175;-45
2022/12/08 01:59:27;;;;;;;17.63;11.35;;;4.70;99.90;;;;;;5054857;28;20631;-45
2022/12/08 02:01:53;;;;;;;21.42;12.52;;;4.70;99.90;;;;;;5054650;28;20588;-45
2022/12/08 02:04:18;;;;;;;21.90;12.20;;;4.70;99.90;;;;;;5054778;28;20254;-45
2022/12/08 02:06:46;;;;;;;21.23;12.48;;;4.70;99.90;;;;;;5054748;28;20170;-44
2022/12/08 02:09:13;;;;;;;24.40;13.57;;;4.80;99.90;;;;;;5054761;28;20593;-45
2022/12/08 02:11:39;;;;;;;20.33;12.48;;;4.70;99.90;;;;;;5054871;28;20257;-45
2022/12/08 02:14:07;;;;;;;20.90;13.18;;;4.70;99.90;;;;;;5055042;28;20254;-45
2022/12/08 02:17:02;;;;;;;24.15;12.52;;;4.80;99.90;;;;;;5054781;28;20265;-45
2022/12/08 02:19:36;;;;;;;22.40;12.70;;;4.80;99.90;;;;;;5054506;28;20631;-45
2022/12/08 02:22:20;;;;;;;15.07;11.10;;;4.80;99.90;;;;;;5054030;28;20208;-45
2022/12/08 02:24:52;;;;;;;21.88;11.13;;;4.80;99.90;;;;;;5054418;28;20257;-45
2022/12/08 02:27:40;;;;;;;19.95;10.80;;;4.80;99.90;;;;;;5054485;28;20206;-45
2022/12/08 02:30:22;;;;;;;18.23;7.80;;;4.80;99.90;;;;;;5054870;28;20162;-47
2022/12/08 02:33:00;;;;;;;16.10;8.23;;;4.80;99.90;;;;;;5054325;28;20174;-46
2022/12/08 02:36:02;;;;;;;9.82;6.45;;;4.80;99.90;;;;;;5054185;28;20162;-45
2022/12/08 02:38:50;;;;;;;13.38;7.75;;;4.80;99.90;;;;;;5054177;28;20166;-48
2022/12/08 02:41:43;;;;;;;9.73;7.20;;;4.80;99.90;;;;;;5054068;28;20206;-46
2022/12/08 02:44:18;;;;;;;11.65;7.72;;;4.80;99.90;;;;;;5054366;28;20553;-51
2022/12/08 02:46:54;;;;;;;12.73;7.95;;;4.80;99.90;;;;;;5054078;28;20173;-46
2022/12/08 02:49:20;;;;;;;9.43;6.90;;;4.80;99.90;;;;;;5053588;28;20249;-46
2022/12/08 02:51:45;;;;;;;13.50;7.03;;;4.80;99.90;;;;;;5054012;28;20252;-47
2022/12/08 02:54:13;;;;;;;8.70;7.07;;;4.80;99.90;;;;;;5053533;28;20626;-48
2022/12/08 02:57:10;;;;;;;11.55;6.85;;;4.80;99.90;;;;;;5054210;28;20630;-47
2022/12/08 02:59:58;;;;;;;8.43;6.00;;;4.80;99.90;;;;;;5054200;28;20170;-48
2022/12/08 03:03:04;;;;;;;10.55;8.15;;;4.70;99.90;;;;;;5053661;28;20541;-48
2022/12/08 03:05:57;;;;;;;11.77;8.00;;;4.70;99.90;;;;;;5053649;28;20159;-46
2022/12/08 03:08:29;;;;;;;7.68;6.07;;;4.70;99.90;;;;;;5053642;28;20661;-47
2022/12/08 03:11:14;;;;;;;9.48;6.35;;;4.70;99.90;;;;;;5053553;28;20202;-49
2022/12/08 03:13:43;;;;;;;8.52;5.93;;;4.70;99.90;;;;;;5053494;28;20171;-47
2022/12/08 03:16:15;;;;;;;10.50;6.78;;;4.70;99.90;;;;;;5053494;28;20635;-50
2022/12/08 03:18:46;;;;;;;13.20;7.93;;;4.70;99.90;;;;;;5053445;28;20692;-50
2022/12/08 03:21:14;;;;;;;9.27;6.70;;;4.70;99.90;;;;;;5053298;28;20248;-50
2022/12/08 03:23:43;;;;;;;12.65;8.02;;;4.70;99.90;;;;;;5053569;28;20174;-49
2022/12/08 03:26:44;;;;;;;9.13;7.07;;;4.80;99.90;;;;;;5053293;28;20258;-46
2022/12/08 03:29:10;;;;;;;11.63;8.50;;;4.70;99.90;;;;;;5052059;28;20549;-48
2022/12/08 03:31:44;;;;;;;11.60;7.45;;;4.80;99.90;;;;;;5053626;28;20173;-47
2022/12/08 03:34:11;;;;;;;16.08;8.30;;;4.70;99.90;;;;;;5053378;28;20551;-47
2022/12/08 03:36:37;;;;;;;11.35;8.45;;;4.80;99.90;;;;;;5053481;28;20170;-49
2022/12/08 03:39:03;;;;;;;11.13;8.07;;;4.80;99.90;;;;;;5053307;28;20301;-47
2022/12/08 03:41:28;;;;;;;12.43;8.38;;;4.80;99.90;;;;;;5052892;28;20693;-48
2022/12/08 03:43:58;;;;;;;15.10;8.48;;;4.80;99.90;;;;;;5052547;28;20163;-46
2022/12/08 03:46:26;;;;;;;13.63;9.13;;;4.80;99.90;;;;;;5053152;28;20188;-48
2022/12/08 03:48:53;;;;;;;12.55;9.52;;;4.80;99.90;;;;;;5052660;28;20175;-48
2022/12/08 03:51:19;;;;;;;13.55;8.88;;;4.80;99.90;;;;;;5052811;28;20177;-50
2022/12/08 03:53:45;;;;;;;12.45;8.52;;;4.80;99.90;;;;;;5052601;28;20174;-47
2022/12/08 03:56:15;;;;;;;13.65;8.60;;;4.80;99.90;;;;;;5052614;28;20171;-47
2022/12/08 03:58:42;;;;;;;14.40;9.32;;;4.80;99.90;;;;;;5052926;28;20166;-50
2022/12/08 04:01:08;;;;;;;10.13;8.02;;;4.90;99.90;;;;;;5052848;28;20231;-46
2022/12/08 04:03:33;;;;;;;12.80;9.13;;;7.30;99.90;;;;;;5052842;28;20631;-48
2022/12/08 04:05:59;;;;;;;10.38;6.68;;;4.80;99.90;;;;;;5051918;28;20182;-49
2022/12/08 04:08:24;;;;;;;11.93;8.60;;;4.80;99.90;;;;;;5052716;28;20170;-46
2022/12/08 04:10:50;;;;;;;12.27;8.00;;;4.70;99.90;;;;;;5052346;28;20201;-48
2022/12/08 04:13:15;;;;;;;12.50;8.70;;;4.80;99.90;;;;;;5052407;28;20169;-46
2022/12/08 04:15:46;;;;;;;13.45;8.57;;;4.80;99.90;;;;;;5052242;28;20167;-47
2022/12/08 04:18:12;;;;;;;13.45;9.50;;;4.70;99.90;;;;;;5052332;28;20162;-47
2022/12/08 04:20:42;;;;;;;14.07;9.45;;;4.70;99.90;;;;;;5052521;28;20186;-45
2022/12/08 04:23:09;;;;;;;14.27;9.38;;;4.80;99.90;;;;;;5052475;28;20175;-45
2022/12/08 04:25:35;;;;;;;14.10;10.30;;;4.80;99.90;;;;;;5052405;28;20203;-48
2022/12/08 04:28:01;;;;;;;18.27;9.52;;;4.70;99.90;;;;;;5052355;28;20257;-50
2022/12/08 04:30:26;;;;;;;15.85;9.68;;;4.70;99.90;;;;;;5052082;28;20680;-46
2022/12/08 04:32:52;;;;;;;11.52;6.53;;;4.70;99.90;;;;;;5051985;28;20162;-47
2022/12/08 04:35:17;;;;;;;15.43;9.30;;;4.70;99.90;;;;;;5052025;28;20198;-46
2022/12/08 04:37:43;;;;;;;15.40;8.77;;;4.70;99.90;;;;;;5052240;28;20170;-45
2022/12/08 04:40:10;;;;;;;18.55;10.32;;;4.60;99.90;;;;;;5051930;28;20167;-47
2022/12/08 04:42:36;;;;;;;14.25;10.30;;;4.60;99.90;;;;;;5052136;28;20690;-45
2022/12/08 04:45:01;;;;;;;15.82;9.93;;;4.60;99.90;;;;;;5050961;28;20248;-45
2022/12/08 04:47:27;;;;;;;16.85;10.13;;;4.60;99.90;;;;;;5051518;28;20166;-46
2022/12/08 04:49:52;;;;;;;18.45;10.93;;;4.70;99.90;;;;;;5051825;28;20256;-45
2022/12/08 04:52:18;;;;;;;17.05;10.32;;;4.70;99.90;;;;;;5051809;28;20175;-45
2022/12/08 04:54:43;;;;;;;17.58;10.60;;;4.70;99.90;;;;;;5051809;28;20177;-48
2022/12/08 04:57:09;;;;;;;21.27;11.55;;;4.70;99.90;;;;;;5051692;28;20159;-46
2022/12/08 04:59:35;;;;;;;18.65;11.25;;;4.70;99.90;;;;;;5052111;28;20245;-47
2022/12/08 05:02:00;;;;;;;17.65;11.48;;;4.70;99.90;;;;;;5051160;28;20823;-48
2022/12/08 05:04:26;;;;;;;19.00;12.13;;;4.70;99.90;;;;;;5051476;28;20167;-45
2022/12/08 05:06:51;;;;;;;25.67;14.30;;;4.80;99.90;;;;;;5050846;28;20194;-46
2022/12/08 05:09:17;;;;;;;22.42;13.65;;;4.70;99.90;;;;;;5051563;28;20170;-46
2022/12/08 05:11:42;;;;;;;23.33;12.63;;;4.70;99.90;;;;;;5051639;28;20181;-45
2022/12/08 05:14:11;;;;;;;25.80;14.82;;;4.60;99.90;;;;;;5051668;28;20249;-46
2022/12/08 05:16:37;;;;;;;19.85;10.98;;;4.70;99.90;;;;;;5052093;28;20227;-47
2022/12/08 05:19:03;;;;;;;25.88;14.50;;;4.70;99.90;;;;;;5055917;28;20163;-47
2022/12/08 05:21:28;;;;;;;27.38;15.73;;;4.80;99.90;;;;;;5055515;28;20662;-46
2022/12/08 05:23:54;;;;;;;23.48;14.82;;;4.70;99.90;;;;;;5055552;28;20614;-45
2022/12/08 05:26:19;;;;;;;28.70;14.68;;;4.70;99.90;;;;;;5055092;28;20174;-46
2022/12/08 05:28:45;;;;;;;25.13;14.18;;;4.70;99.90;;;;;;5055500;28;20170;-47
2022/12/08 05:31:12;;;;;;;18.33;11.50;;;4.70;99.90;;;;;;5055397;28;20236;-45
2022/12/08 05:33:37;;;;;;;21.77;13.63;;;4.70;99.90;;;;;;5055634;28;20515;-45
2022/12/08 05:36:03;;;;;;;19.77;12.38;;;4.70;99.90;;;;;;5055797;28;20166;-47
2022/12/08 05:38:28;;;;;;;23.40;13.85;;;4.70;99.90;;;;;;5055381;28;20584;-45
2022/12/08 05:40:54;;;;;;;26.67;16.42;;;4.70;99.90;;;;;;5055111;28;20204;-45
2022/12/08 05:43:20;;;;;;;30.80;15.43;;;4.80;99.90;;;;;;5055225;28;20174;-45
2022/12/08 05:45:45;;;;;;;25.60;14.65;;;4.80;99.90;;;;;;5055151;28;20186;-47
2022/12/08 05:48:11;;;;;;;27.65;15.13;;;4.70;99.90;;;;;;5055159;28;20213;-45
2022/12/08 05:50:36;;;;;;;25.75;14.05;;;4.70;99.90;;;;;;5055350;28;20177;-45
2022/12/08 05:53:02;;;;;;;23.60;14.20;;;4.70;99.90;;;;;;5054826;28;20639;-47
2022/12/08 05:55:28;;;;;;;30.58;15.85;;;4.70;99.90;;;;;;5054741;28;20212;-47
2022/12/08 05:57:53;;;;;;;26.15;14.88;;;4.80;99.90;;;;;;5054961;28;20178;-46
2022/12/08 06:00:20;;;;;;;25.35;13.57;;;4.70;99.90;;;;;;5054543;28;20624;-47
2022/12/08 06:02:45;;;;;;;27.30;13.45;;;4.80;99.90;;;;;;5054819;28;20174;-46
2022/12/08 06:05:11;;;;;;;29.50;14.38;;;4.70;99.90;;;;;;5054549;28;20529;-46
2022/12/08 06:07:38;;;;;;;28.30;13.95;;;4.70;99.90;;;;;;5055304;28;20277;-46
2022/12/08 06:10:04;;;;;;;24.83;15.02;;;4.70;99.90;;;;;;5054984;28;20297;-46
2022/12/08 06:12:30;;;;;;;18.77;10.85;;;4.70;99.90;;;;;;5054641;28;20171;-45
2022/12/08 06:14:56;;;;;;;27.55;14.65;;;4.60;99.90;;;;;;5054878;28;20657;-47
2022/12/08 06:17:21;;;;;;;23.30;11.65;;;4.70;99.90;;;;;;5054618;28;20170;-45
2022/12/08 06:19:47;;;;;;;26.27;14.88;;;4.50;99.90;;;;;;5054836;28;20177;-48
2022/12/08 06:22:12;;;;;;;26.63;14.38;;;4.60;99.90;;;;;;5054370;28;20657;-45
2022/12/08 06:24:38;;;;;;;25.35;12.95;;;4.60;99.90;;;;;;5054386;28;20163;-45
2022/12/08 06:27:03;;;;;;;28.88;13.52;;;4.60;99.90;;;;;;5054726;28;20554;-45
2022/12/08 06:29:29;;;;;;;27.02;14.00;;;4.70;99.90;;;;;;5053568;28;20578;-47
2022/12/08 06:31:54;;;;;;;29.58;15.07;;;4.60;99.90;;;;;;5054324;28;20177;-45
2022/12/08 06:34:20;;;;;;;24.02;12.35;;;4.50;99.90;;;;;;5054516;28;20179;-45
2022/12/08 06:36:45;;;;;;;27.90;14.38;;;4.60;99.90;;;;;;5054245;28;20167;-45
2022/12/08 06:39:11;;;;;;;28.92;14.35;;;4.50;99.90;;;;;;5054283;28;20182;-45
2022/12/08 06:42:42;;;;;;;21.10;12.38;;;4.60;99.90;;;;;;5054593;28;20210;-45
2022/12/08 06:44:22;;;;;;;23.85;9.45;;;4.50;99.90;;;;;;5053904;28;20171;-45
2022/12/08 06:46:48;;;;;;;27.70;13.77;;;4.50;99.90;;;;;;5053940;28;20175;-46
2022/12/08 06:49:13;;;;;;;28.35;13.32;;;4.60;99.90;;;;;;5053935;28;20179;-50
2022/12/08 06:51:39;;;;;;;24.40;13.27;;;4.50;99.90;;;;;;5053922;28;20171;-45
2022/12/08 06:54:04;;;;;;;27.42;12.85;;;4.50;99.90;;;;;;5054157;28;20171;-45
2022/12/08 06:56:30;;;;;;;27.13;13.20;;;4.50;99.90;;;;;;5053816;28;20320;-45
2022/12/08 06:58:55;;;;;;;26.92;12.27;;;4.40;99.90;;;;;;5053721;28;20155;-45
2022/12/08 07:01:21;;;;;;;27.20;11.85;;;4.50;99.90;;;;;;5053460;28;20303;-45
2022/12/08 07:03:47;;;;;;;21.58;10.75;;;4.50;99.90;;;;;;5053756;28;20551;-45
2022/12/08 07:06:23;;;;;;;23.85;13.55;;;4.40;99.90;;;;;;5053831;28;20634;-45
2022/12/08 07:08:49;;;;;;;24.77;13.25;;;4.40;99.90;;;;;;5053594;28;20709;-45
2022/12/08 07:11:14;;;;;;;25.00;14.38;;;4.50;99.90;;;;;;5053521;28;20242;-45
2022/12/08 07:13:40;;;;;;;34.60;13.25;;;4.40;99.90;;;;;;5053518;28;20265;-46
2022/12/08 07:16:10;;;;;;;24.77;13.48;;;4.40;99.90;;;;;;5053919;28;20167;-47
2022/12/08 07:18:37;;;;;;;31.30;12.95;;;4.40;99.90;;;;;;5053773;28;20167;-46
2022/12/08 07:21:08;;;;;;;22.17;13.27;;;4.40;99.90;;;;;;5053870;28;20287;-47
2022/12/08 07:23:34;;;;;;;21.60;12.45;;;6.30;99.90;;;;;;5053540;28;20159;-45
2022/12/08 07:26:01;;;;;;;25.40;12.35;;;4.40;99.90;;;;;;5053542;28;20224;-45
2022/12/08 07:28:31;;;;;;;23.42;12.85;;;4.50;99.90;;;;;;5053240;28;20269;-45
2022/12/08 07:30:57;;;;;;;22.15;10.73;;;4.40;99.90;;;;;;5053443;28;20241;-48
2022/12/08 07:33:23;;;;;;;16.83;10.18;;;4.40;99.90;;;;;;5053168;28;20582;-45
2022/12/08 07:35:57;;;;;;;21.15;11.63;;;4.30;99.90;;;;;;5053279;28;20176;-46
2022/12/08 07:38:23;;;;;;;22.23;10.88;;;4.30;99.90;;;;;;5052966;28;20162;-45
2022/12/08 07:40:49;;;;;;;21.55;12.90;;;4.20;99.90;;;;;;5051801;28;20244;-46
2022/12/08 07:43:14;;;;;;;19.80;10.02;;;4.40;99.90;;;;;;5052920;28;20571;-45
2022/12/08 07:45:40;;;;;;;23.98;12.15;;;4.30;99.90;;;;;;5052886;28;20220;-44
2022/12/08 07:48:06;;;;;;;27.38;13.05;;;4.30;99.90;;;;;;5053412;28;20174;-45
2022/12/08 07:50:32;;;;;;;21.33;11.10;;;4.30;99.90;;;;;;5052773;28;20162;-45
2022/12/08 07:52:58;;;;;;;21.88;12.25;;;4.40;99.90;;;;;;5051490;28;20178;-45
2022/12/08 07:55:23;;;;;;;20.85;12.57;;;4.20;99.90;;;;;;5052802;28;20186;-45
2022/12/08 07:57:50;;;;;;;18.92;12.55;;;4.20;99.90;;;;;;5052662;28;20171;-45
2022/12/08 08:00:16;;;;;;;19.95;11.73;;;4.30;99.90;;;;;;5052481;28;20285;-45
2022/12/08 08:02:42;;;;;;;22.27;11.88;;;4.30;99.90;;;;;;5052529;28;20207;-46
2022/12/08 08:05:08;;;;;;;23.20;11.80;;;4.30;99.90;;;;;;5052694;28;20163;-45
2022/12/08 08:07:34;;;;;;;25.15;11.65;;;4.20;99.90;;;;;;5052818;28;20167;-46
2022/12/08 08:09:59;;;;;;;21.65;10.45;;;4.30;99.90;;;;;;5052379;28;20238;-45
2022/12/08 08:12:25;;;;;;;21.65;12.15;;;4.20;99.90;;;;;;5052533;28;20171;-45
2022/12/08 08:14:50;;;;;;;21.33;11.93;;;4.30;99.90;;;;;;5052378;28;20171;-45
2022/12/08 08:17:16;;;;;;;22.65;13.07;;;4.20;99.90;;;;;;5052361;28;20166;-45
2022/12/08 08:19:41;;;;;;;24.55;12.80;;;4.30;99.90;;;;;;5052280;28;20609;-46
2022/12/08 08:22:07;;;;;;;17.95;10.15;;;4.30;99.90;;;;;;5050911;28;20697;-46
2022/12/08 08:24:32;;;;;;;21.60;13.13;;;4.30;99.90;;;;;;5052530;28;20672;-45
2022/12/08 08:26:58;;;;;;;22.67;11.90;;;4.40;99.90;;;;;;5052161;28;20166;-47
2022/12/08 08:29:24;;;;;;;18.95;11.43;;;4.30;99.90;;;;;;5052148;28;20270;-46
2022/12/08 08:31:49;;;;;;;16.90;10.15;;;4.30;99.90;;;;;;5052046;28;20221;-49
2022/12/08 08:34:15;;;;;;;16.13;10.18;;;4.30;99.90;;;;;;5052334;28;20573;-49
2022/12/08 08:36:41;;;;;;;18.10;10.52;;;4.30;99.90;;;;;;5051984;28;20272;-48
2022/12/08 08:39:06;;;;;;;14.48;8.57;;;4.30;99.90;;;;;;5052570;28;20280;-46
2022/12/08 08:41:32;;;;;;;17.33;10.35;;;5.00;99.90;;;;;;5052369;28;20245;-45
2022/12/08 08:43:57;;;;;;;16.60;10.27;;;4.40;99.90;;;;;;5051915;28;20173;-45
2022/12/08 08:46:23;;;;;;;13.80;8.27;;;4.40;99.90;;;;;;5052149;28;20190;-45
2022/12/08 08:48:49;;;;;;;18.77;9.40;;;4.40;99.90;;;;;;5051787;28;20170;-46
2022/12/08 08:51:14;;;;;;;14.93;8.43;;;4.40;99.90;;;;;;5051595;28;20163;-45
2022/12/08 08:53:41;;;;;;;12.48;6.22;;;4.30;99.90;;;;;;5051499;28;20177;-45
2022/12/08 08:56:09;;;;;;;13.90;8.65;;;4.30;99.90;;;;;;5051662;28;20170;-45
2022/12/08 08:58:34;;;;;;;10.15;5.78;;;4.30;99.90;;;;;;5051975;28;20202;-45
2022/12/08 09:01:00;;;;;;;11.25;6.93;;;4.20;99.90;;;;;;5051360;28;20246;-46
2022/12/08 09:03:27;;;;;;;10.05;6.95;;;4.30;99.90;;;;;;5048958;28;20194;-46
2022/12/08 09:05:54;;;;;;;13.90;7.18;;;4.40;99.90;;;;;;5049895;28;20220;-46
2022/12/08 09:08:20;;;;;;;11.18;6.97;;;4.30;99.90;;;;;;5050189;28;20590;-45
2022/12/08 09:10:46;;;;;;;13.30;7.00;;;4.20;99.90;;;;;;5049662;28;20175;-46
2022/12/08 09:13:11;;;;;;;14.75;7.60;;;4.30;99.90;;;;;;5049882;28;20257;-47
2022/12/08 09:15:37;;;;;;;7.70;5.47;;;4.30;99.90;;;;;;5049526;28;20167;-46
2022/12/08 09:18:05;;;;;;;14.43;7.78;;;4.40;99.90;;;;;;5049950;28;20186;-46
2022/12/08 09:20:31;;;;;;;10.25;7.80;;;4.30;99.90;;;;;;5029778;28;20198;-47
2022/12/08 09:22:57;;;;;;;14.18;8.48;;;4.40;99.90;;;;;;5029810;28;20609;-46
2022/12/08 09:25:22;;;;;;;13.45;8.40;;;4.30;99.90;;;;;;5028548;28;20258;-45
2022/12/08 09:27:48;;;;;;;10.50;7.00;;;4.40;99.90;;;;;;5029999;28;20191;-45
2022/12/08 09:30:13;;;;;;;18.92;7.47;;;4.40;99.90;;;;;;5029613;28;20257;-45
2022/12/08 09:32:39;;;;;;;11.05;7.63;;;4.40;99.90;;;;;;5029628;28;20167;-45
2022/12/08 09:35:05;;;;;;;10.65;6.95;;;4.40;99.90;;;;;;5029995;28;20168;-45
2022/12/08 09:37:30;;;;;;;7.90;4.55;;;4.40;99.90;;;;;;5028512;28;20686;-44
2022/12/08 09:39:56;;;;;;;7.10;4.70;;;4.40;99.90;;;;;;5029673;28;20683;-45
2022/12/08 09:42:37;;;;;;;6.80;4.35;;;4.30;99.90;;;;;;5029822;28;20727;-45
2022/12/08 09:45:10;;;;;;;7.68;4.15;;;4.40;99.90;;;;;;5029905;28;20242;-45
2022/12/08 09:47:46;;;;;;;4.65;3.55;;;4.40;99.90;;;;;;5029941;28;20519;-45
2022/12/08 09:50:56;;;;;;;8.25;4.72;;;4.50;99.90;;;;;;5029456;28;20217;-44
2022/12/08 09:53:34;;;;;;;7.45;4.78;;;4.50;99.90;;;;;;5028968;28;20257;-46
2022/12/08 09:56:11;;;;;;;7.35;4.30;;;4.50;99.90;;;;;;5029504;28;20174;-45
2022/12/08 09:58:55;;;;;;;6.72;5.00;;;4.60;99.90;;;;;;5029656;28;20171;-44
2022/12/08 10:01:22;;;;;;;11.10;6.00;;;4.50;99.90;;;;;;5029302;28;20259;-44
2022/12/08 10:03:48;;;;;;;11.10;6.50;;;4.60;99.90;;;;;;5029857;28;20264;-45
2022/12/08 10:06:20;;;;;;;12.23;6.88;;;4.60;99.90;;;;;;5031956;28;20182;-43
2022/12/08 10:09:05;;;;;;;10.50;7.68;;;4.70;99.90;;;;;;5033270;28;20191;-46
2022/12/08 10:11:58;;;;;;;16.00;8.07;;;4.70;99.90;;;;;;5033154;28;20202;-46
2022/12/08 10:14:35;;;;;;;16.02;9.48;;;4.70;99.90;;;;;;5033175;28;20529;-47
2022/12/08 10:17:10;;;;;;;19.77;9.27;;;4.80;99.90;;;;;;5032837;28;20167;-45
2022/12/08 10:19:39;;;;;;;13.85;10.05;;;4.80;99.90;;;;;;5033195;28;20170;-44
2022/12/08 10:22:22;;;;;;;11.60;7.85;;;4.80;99.90;;;;;;5046634;28;20304;-51
2022/12/08 10:25:03;;;;;;;19.15;9.55;;;4.80;99.90;;;;;;5052739;28;20666;-47
2022/12/08 10:27:28;;;;;;;14.48;8.68;;;4.90;99.90;;;;;;5052537;28;20167;-47
2022/12/08 10:29:54;;;;;;;11.68;7.72;;;4.70;99.90;;;;;;5052621;28;20542;-51
2022/12/08 10:32:22;;;;;;;8.57;6.65;;;4.70;99.90;;;;;;5052399;28;20301;-51
2022/12/08 10:34:59;;;;;;;10.85;6.75;;;4.70;99.90;;;;;;5052379;28;20167;-45
2022/12/08 10:37:24;;;;;;;11.70;6.40;;;4.70;99.90;;;;;;5052898;28;20309;-48
2022/12/08 10:40:00;;;;;;;10.20;6.60;;;4.70;99.90;;;;;;5052379;28;20249;-43
2022/12/08 10:42:38;;;;;;;11.02;6.65;;;4.80;99.90;;;;;;5052506;28;20582;-43
2022/12/08 10:45:26;;;;;;;10.63;6.88;;;4.80;99.90;;;;;;5052480;28;20166;-46
2022/12/08 10:48:19;;;;;;;10.98;6.35;;;4.80;99.90;;;;;;5052490;28;20170;-48
2022/12/08 10:50:51;;;;;;;10.90;6.00;;;4.80;99.90;;;;;;5052133;28;20642;-59
2022/12/08 10:53:28;;;;;;;8.77;5.80;;;4.80;99.90;;;;;;5052067;28;20225;-56
2022/12/08 10:56:00;;;;;;;11.20;6.53;;;4.80;99.90;;;;;;5051944;28;20672;-59
2022/12/08 10:58:39;;;;;;;15.90;6.57;;;4.80;99.90;;;;;;5052047;28;20167;-53
2022/12/08 11:01:20;;;;;;;11.00;7.30;;;4.90;99.90;;;;;;5052263;28;20230;-50
2022/12/08 11:04:12;;;;;;;11.43;7.00;;;4.90;99.90;;;;;;5051747;28;20171;-50
2022/12/08 11:06:39;;;;;;;12.82;6.93;;;5.00;99.90;;;;;;5048704;28;20266;-51
2022/12/08 11:09:26;;;;;;;10.57;5.95;;;4.90;99.90;;;;;;5052239;28;20547;-54
2022/12/08 11:11:54;;;;;;;9.63;5.50;;;4.90;99.90;;;;;;5040593;28;20182;-51
2022/12/08 11:14:35;;;;;;;8.23;5.82;;;4.90;99.90;;;;;;5051995;28;20173;-52
2022/12/08 11:17:08;;;;;;;9.35;4.55;;;4.90;99.90;;;;;;5050562;28;20170;-53
2022/12/08 11:19:45;;;;;;;9.32;5.55;;;4.90;99.90;;;;;;5052030;28;20171;-51
2022/12/08 11:22:24;;;;;;;7.28;5.18;;;4.90;99.90;;;;;;5050233;28;21056;-48
2022/12/08 11:25:10;;;;;;;9.40;4.20;;;5.00;99.90;;;;;;5051681;28;20664;-51
2022/12/08 11:27:39;;;;;;;8.50;4.15;;;5.10;99.90;;;;;;5051749;28;20647;-47
2022/12/08 11:30:29;;;;;;;6.60;3.95;;;5.10;99.90;;;;;;5050633;28;20185;-51
2022/12/08 11:32:59;;;;;;;6.38;4.45;;;5.10;99.90;;;;;;5051305;28;20167;-46
2022/12/08 11:35:32;;;;;;;9.75;4.80;;;5.10;99.90;;;;;;5051310;28;20178;-46
2022/12/08 11:38:10;;;;;;;11.63;5.63;;;5.10;99.90;;;;;;5051254;28;20521;-51
2022/12/08 11:40:38;;;;;;;9.60;4.68;;;5.30;99.90;;;;;;5051343;28;20162;-45
2022/12/08 11:43:23;;;;;;;10.77;4.30;;;5.10;99.90;;;;;;5051754;28;20162;-45
2022/12/08 11:45:57;;;;;;;13.73;5.35;;;5.10;99.90;;;;;;5051130;28;20163;-46
2022/12/08 11:48:34;;;;;;;11.57;5.82;;;5.10;99.90;;;;;;5051067;28;20177;-45
2022/12/08 11:51:18;;;;;;;13.50;5.68;;;5.10;99.90;;;;;;5051260;28;20537;-49
2022/12/08 11:54:05;;;;;;;13.75;5.97;;;5.10;99.90;;;;;;5051325;28;20185;-47
2022/12/08 11:56:40;;;;;;;14.00;7.07;;;5.10;99.90;;;;;;5051375;28;20250;-50
2022/12/08 11:59:13;;;;;;;11.45;7.30;;;5.20;99.90;;;;;;5051172;28;20509;-44
2022/12/08 12:01:38;;;;;;;14.07;7.45;;;5.30;99.90;;;;;;5050508;28;20280;-50
2022/12/08 12:04:30;;;;;;;14.95;7.10;;;5.40;99.90;;;;;;5050932;28;20159;-43
2022/12/08 12:07:21;;;;;;;9.90;6.97;;;5.50;99.90;;;;;;5050851;28;20178;-45
2022/12/08 12:10:11;;;;;;;10.35;6.30;;;5.50;99.90;;;;;;5051040;28;20175;-49
2022/12/08 12:12:59;;;;;;;16.90;7.45;;;5.50;99.90;;;;;;5050551;28;20159;-45
2022/12/08 12:16:07;;;;;;;13.23;8.05;;;5.60;99.90;;;;;;5050130;28;20928;-47
2022/12/08 12:18:40;;;;;;;15.05;7.85;;;5.60;99.90;;;;;;5051147;28;20178;-42
2022/12/08 12:21:40;;;;;;;10.93;6.40;;;5.60;99.90;;;;;;5050648;28;20202;-43
2022/12/08 12:24:17;;;;;;;11.15;6.90;;;5.60;99.90;;;;;;5031416;28;20187;-47
2022/12/08 12:26:54;;;;;;;15.00;6.53;;;5.60;99.90;;;;;;5049641;28;20170;-48
2022/12/08 12:29:22;;;;;;;12.02;7.60;;;5.70;99.90;;;;;;5050505;28;20228;-46
2022/12/08 12:31:53;;;;;;;12.13;6.53;;;5.80;99.90;;;;;;5050325;28;20188;-47
2022/12/08 12:34:27;;;;;;;10.45;5.78;;;5.80;99.90;;;;;;5050284;28;20167;-48
2022/12/08 12:37:09;;;;;;;9.18;5.97;;;5.90;99.90;;;;;;5050219;28;20166;-52
2022/12/08 12:39:56;;;;;;;9.77;6.40;;;6.00;99.90;;;;;;5050861;28;20173;-44
2022/12/08 12:42:41;;;;;;;8.55;5.43;;;6.10;99.90;;;;;;5050151;28;20233;-51
2022/12/08 12:45:10;;;;;;;13.18;6.25;;;6.10;99.90;;;;;;5049995;28;20162;-43
2022/12/08 12:47:55;;;;;;;9.90;5.93;;;6.20;99.90;;;;;;5050288;28;20182;-43
2022/12/08 12:50:33;;;;;;;9.55;6.18;;;6.20;99.90;;;;;;5050044;28;20163;-46
2022/12/08 12:53:03;;;;;;;12.23;6.30;;;6.10;99.90;;;;;;5049842;28;20757;-49
2022/12/08 12:55:55;;;;;;;8.48;5.47;;;6.20;99.90;;;;;;5049743;28;20630;-46
2022/12/08 12:58:34;;;;;;;12.25;5.57;;;6.00;99.90;;;;;;5046866;28;20178;-50
2022/12/08 13:01:11;;;;;;;13.20;5.65;;;5.90;99.90;;;;;;5049631;28;20301;-45
2022/12/08 13:03:40;;;;;;;7.50;4.55;;;5.90;99.90;;;;;;5048167;28;20175;-49
2022/12/08 13:06:10;;;;;;;13.73;5.95;;;5.80;99.90;;;;;;5049739;28;20166;-47